Johnstone Strait: Past 24 Hour Conditions

 

La Perouse Bank - 46206

01:00 PM PST 24 February 2018Buoy position: 48.83N 126.0W
Disclaimer

This table is a summary of hourly weather conditions for the past 24 hours.
Please note that these observations might not always be representative of weather conditions over their associated marine area.

Date / Time
(PST)
Wind(knots) Wave height(m) Wave period(s) Pressure(kPa) Air tempC) Water tempC)
24 February 2018
13:00 WNW 14 gust 19 3.5 13.0 102.0 8 9
12:00 N/A N/A N/A N/A N/A N/A
11:00 WNW 18 gust 21 3.9 12.0 102.0 7 9
10:00 WNW 18 gust 23 3.5 12.0 102.0 7 9
9:00 WNW 21 gust 25 3.7 12.0 101.9 7 9
8:00 WNW 19 gust 23 3.6 11.0 101.8 7 9
7:00 NW 23 gust 27 4.0 12.0 101.7 6 9
6:00 N/A N/A N/A N/A N/A N/A
5:00 NW 23 gust 29 4.0 11.0 101.5 6 9
4:00 WNW 25 gust 29 4.0 12.0 101.4 6 9
3:00 N/A N/A N/A N/A N/A N/A
2:00 WNW 27 gust 31 3.7 10.0 101.4 6 9
1:00 WNW 25 gust 31 3.5 10.0 101.4 6 9
0:00 W 18 gust 21 3.5 8.0 101.4 4 9
23 February 2018
23:00 WNW 25 gust 31 3.3 8.0 101.4 5 9
22:00 W 19 gust 27 3.0 8.0 101.5 6 9
21:00 W 21 gust 29 3.0 8.0 101.7 6 9
20:00 W 21 gust 31 2.8 7.0 101.8 7 9
19:00 W 18 gust 23 2.7 8.0 101.9 7 9
18:00 W 14 gust 18 2.6 8.0 101.9 7 9
17:00 W 19 gust 25 2.7 8.0 102.0 7 9
16:00 WNW 18 gust 21 2.4 7.0 102.0 7 9
15:00 WNW 19 gust 23 2.4 7.0 102.0 8 9
14:00 NW 18 gust 21 2.3 14.0 102.1 8 9
13:00 WNW 23 gust 29 2.2 15.0 102.1 8 9

Zoom-in to make a selection

Map of Pacific - Georgia Basin marine weather areas Tsawwassen Ferry Terminal Sentry Shoal - 46131 Halibut Bank - 46146 La Perouse Bank - 46206 Discovery Island Esquimalt Harbour Kelp Reefs Malahat Race Rocks Lightstation Saturna Island Sheringham Point University of Victoria Victoria Gonzales Victoria Int'l Airport Ballenas Islands Campbell River Airport Comox Airport Entrance Island Fanny Island Nanaimo Airport Sisters Islets Estevan Point Tofino Airport Grief Point Powell River Airport Sechelt Point Atkinson Sand Heads Lightstation Vancouver Harbour Vancouver Int'l Airport West Vancouver Port Alberni Howe Sound - Pam Rocks Squamish Airport
Legend:
buoy Buoy
land station Land Station

Pacific - Georgia Basin Area

Another Region

What we are doing

Date modified: